createdAt,value
2022-08-05T00:01:36.145Z,20.54
2022-08-05T00:04:14.810Z,20.55
2022-08-05T00:06:41.337Z,20.59
2022-08-05T00:09:13.116Z,20.53
2022-08-05T00:11:49.159Z,20.52
2022-08-05T00:14:17.106Z,20.45
2022-08-05T00:16:52.548Z,20.42
2022-08-05T00:19:22.146Z,20.47
2022-08-05T00:21:49.419Z,20.48
2022-08-05T00:24:16.150Z,20.49
2022-08-05T00:26:50.769Z,20.49
2022-08-05T00:29:18.661Z,20.44
2022-08-05T00:32:10.247Z,20.40
2022-08-05T00:34:53.874Z,20.41
2022-08-05T00:37:22.327Z,20.43
2022-08-05T00:39:58.489Z,20.34
2022-08-05T00:42:34.123Z,20.36
2022-08-05T00:45:01.657Z,20.33
2022-08-05T00:47:49.197Z,20.30
2022-08-05T00:50:15.293Z,20.26
2022-08-05T00:52:41.739Z,20.24
2022-08-05T00:55:12.295Z,20.21
2022-08-05T00:57:57.933Z,20.21
2022-08-05T01:00:26.196Z,20.14
2022-08-05T01:02:52.765Z,20.11
2022-08-05T01:05:19.533Z,20.05
2022-08-05T01:08:30.647Z,20.03
2022-08-05T01:10:54.919Z,20.06
2022-08-05T01:13:58.288Z,20.06
2022-08-05T01:16:58.287Z,20.06
2022-08-05T01:20:01.823Z,20.02
2022-08-05T01:22:27.929Z,19.98
2022-08-05T01:25:19.364Z,19.98
2022-08-05T01:28:10.650Z,19.94
2022-08-05T01:30:50.689Z,19.93
2022-08-05T01:33:25.393Z,19.93
2022-08-05T01:35:55.473Z,19.87
2022-08-05T01:38:29.308Z,19.88
2022-08-05T01:41:02.402Z,19.89
2022-08-05T01:43:30.578Z,19.91
2022-08-05T01:45:58.794Z,19.85
2022-08-05T01:48:36.412Z,19.85
2022-08-05T01:51:12.495Z,19.86
2022-08-05T01:53:57.016Z,19.84
2022-08-05T01:58:12.772Z,19.81
2022-08-05T01:59:20.022Z,19.75
2022-08-05T02:01:50.107Z,19.72
2022-08-05T02:04:20.415Z,19.73
2022-08-05T02:06:47.827Z,19.70
2022-08-05T02:09:15.562Z,19.69
2022-08-05T02:11:52.369Z,19.68
2022-08-05T02:14:32.000Z,19.69
2022-08-05T02:17:07.365Z,19.69
2022-08-05T02:19:47.002Z,19.64
2022-08-05T02:22:26.367Z,19.63
2022-08-05T02:25:00.141Z,19.63
2022-08-05T02:27:30.193Z,19.62
2022-08-05T02:30:17.378Z,19.64
2022-08-05T02:32:48.170Z,19.61
2022-08-05T02:35:27.761Z,19.55
2022-08-05T02:37:56.749Z,19.54
2022-08-05T02:40:27.543Z,19.51
2022-08-05T02:42:55.636Z,19.48
2022-08-05T02:45:25.316Z,19.45
2022-08-05T02:48:07.545Z,19.43
2022-08-05T02:50:44.140Z,19.43
2022-08-05T02:53:18.797Z,19.45
2022-08-05T02:55:54.814Z,19.44
2022-08-05T02:58:29.994Z,19.39
2022-08-05T03:00:58.936Z,19.40
2022-08-05T03:03:28.074Z,19.40
2022-08-05T03:06:56.816Z,19.37
2022-08-05T03:08:52.107Z,19.36
2022-08-05T03:11:54.625Z,19.33
2022-08-05T03:14:08.470Z,19.31
2022-08-05T03:16:35.980Z,19.29
2022-08-05T03:19:12.499Z,19.28
2022-08-05T03:21:48.929Z,19.31
2022-08-05T03:24:18.437Z,19.27
2022-08-05T03:26:56.517Z,19.27
2022-08-05T03:29:24.183Z,19.27
2022-08-05T03:32:11.054Z,19.30
2022-08-05T03:34:38.470Z,19.27
2022-08-05T03:37:06.637Z,19.27
2022-08-05T03:39:38.107Z,19.21
2022-08-05T03:42:13.803Z,19.18
2022-08-05T03:44:42.502Z,19.15
2022-08-05T03:47:09.047Z,19.15
2022-08-05T03:49:51.858Z,19.11
2022-08-05T03:52:37.445Z,19.12
2022-08-05T03:56:04.724Z,19.12
2022-08-05T03:58:10.686Z,19.13
2022-08-05T04:00:39.782Z,19.19
2022-08-05T04:03:14.887Z,19.15
2022-08-05T04:05:54.154Z,19.11
2022-08-05T04:08:34.617Z,19.01
2022-08-05T04:11:04.616Z,19.00
2022-08-05T04:13:50.051Z,18.99
2022-08-05T04:16:25.223Z,18.99
2022-08-05T04:18:58.005Z,18.93
2022-08-05T04:22:09.545Z,18.89
2022-08-05T04:24:19.502Z,18.87
2022-08-05T04:26:50.067Z,18.92
2022-08-05T04:29:17.030Z,18.90
2022-08-05T04:31:43.555Z,18.91
2022-08-05T04:34:31.139Z,18.89
2022-08-05T04:36:56.817Z,18.86
2022-08-05T04:39:23.428Z,18.85
2022-08-05T04:41:50.983Z,18.79
2022-08-05T04:44:21.134Z,18.79
2022-08-05T04:46:56.030Z,18.81
2022-08-05T04:49:24.461Z,18.72
2022-08-05T04:51:51.383Z,18.73
2022-08-05T04:54:27.269Z,18.72
2022-08-05T04:56:58.929Z,18.79
2022-08-05T04:59:38.281Z,18.83
2022-08-05T05:02:36.167Z,18.87
2022-08-05T05:04:52.534Z,18.83
2022-08-05T05:07:29.790Z,18.82
2022-08-05T05:09:59.014Z,18.78
2022-08-05T05:12:29.112Z,18.80
2022-08-05T05:14:55.606Z,18.78
2022-08-05T05:17:24.611Z,18.77
2022-08-05T05:20:09.350Z,18.72
2022-08-05T05:22:40.977Z,18.71
2022-08-05T05:25:17.101Z,18.70
2022-08-05T05:27:48.776Z,18.68
2022-08-05T05:30:31.357Z,18.73
2022-08-05T05:33:03.726Z,18.77
2022-08-05T05:35:43.639Z,18.76
2022-08-05T05:38:13.281Z,18.78
2022-08-05T05:40:45.057Z,18.81
2022-08-05T05:43:16.638Z,18.87
2022-08-05T05:45:54.737Z,18.86
2022-08-05T05:48:27.664Z,18.91
2022-08-05T05:50:54.416Z,18.89
2022-08-05T05:53:22.758Z,18.87
2022-08-05T05:55:52.178Z,18.85
2022-08-05T05:58:30.374Z,18.84
2022-08-05T06:01:12.357Z,18.85
2022-08-05T06:04:00.630Z,18.97
2022-08-05T06:06:27.923Z,19.23
2022-08-05T06:08:58.028Z,19.27
2022-08-05T06:11:24.477Z,19.17
2022-08-05T06:13:54.057Z,19.15
2022-08-05T06:16:29.591Z,19.17
2022-08-05T06:18:59.927Z,19.25
2022-08-05T06:21:37.210Z,19.30
2022-08-05T06:24:07.749Z,19.35
2022-08-05T06:26:51.270Z,19.41
2022-08-05T06:29:25.126Z,19.43
2022-08-05T06:32:24.873Z,19.46
2022-08-05T06:34:59.176Z,19.44
2022-08-05T06:37:57.394Z,19.43
2022-08-05T06:40:14.107Z,19.43
2022-08-05T06:42:51.531Z,19.41
2022-08-05T06:45:21.252Z,19.45
2022-08-05T06:48:36.148Z,19.46
2022-08-05T06:50:51.484Z,19.39
2022-08-05T06:53:27.592Z,19.39
2022-08-05T06:55:55.812Z,19.32
2022-08-05T06:58:35.013Z,19.33
2022-08-05T07:01:05.768Z,19.32
2022-08-05T07:03:33.611Z,19.27
2022-08-05T07:06:06.256Z,19.25
2022-08-05T07:08:41.891Z,19.32
2022-08-05T07:11:15.269Z,19.42
2022-08-05T07:14:01.499Z,19.50
2022-08-05T07:17:56.227Z,19.35
2022-08-05T07:22:28.346Z,19.72
2022-08-05T07:25:22.023Z,19.81
2022-08-05T07:27:57.514Z,19.85
2022-08-05T07:30:32.512Z,19.95
2022-08-05T07:33:00.835Z,19.97
2022-08-05T07:36:05.227Z,20.02
2022-08-05T07:38:32.825Z,20.14
2022-08-05T07:42:06.943Z,20.29
2022-08-05T07:43:57.538Z,20.36
2022-08-05T07:46:26.183Z,20.41
2022-08-05T07:49:02.363Z,20.45
2022-08-05T07:51:48.940Z,20.49
2022-08-05T07:54:26.517Z,20.49
2022-08-05T07:57:13.788Z,20.64
2022-08-05T07:59:43.364Z,20.67
2022-08-05T08:02:15.647Z,20.76
2022-08-05T08:04:48.401Z,20.85
2022-08-05T08:07:17.846Z,21.00
2022-08-05T08:09:45.739Z,21.09
2022-08-05T08:12:37.142Z,21.14
2022-08-05T08:15:03.575Z,21.01
2022-08-05T08:17:32.232Z,20.85
2022-08-05T08:20:23.413Z,20.75
2022-08-05T08:22:52.101Z,20.71
2022-08-05T08:25:27.140Z,20.77
2022-08-05T08:28:05.704Z,20.92
2022-08-05T08:30:47.947Z,20.96
2022-08-05T08:33:16.604Z,20.98
2022-08-05T08:35:52.740Z,21.00
2022-08-05T08:38:35.470Z,20.91
2022-08-05T08:41:09.993Z,21.02
2022-08-05T08:45:20.237Z,21.02
2022-08-05T08:46:26.343Z,21.14
2022-08-05T08:49:06.134Z,21.16
2022-08-05T08:52:03.507Z,21.15
2022-08-05T08:54:30.582Z,21.29
2022-08-05T08:56:59.712Z,21.40
2022-08-05T08:59:27.890Z,21.29
2022-08-05T09:02:06.222Z,21.16
2022-08-05T09:04:58.178Z,21.33
2022-08-05T09:07:28.870Z,21.43
2022-08-05T09:09:55.900Z,21.54
2022-08-05T09:12:27.690Z,21.71
2022-08-05T09:14:58.678Z,21.72
2022-08-05T09:17:40.873Z,21.68
2022-08-05T09:20:08.712Z,21.68
2022-08-05T09:23:19.803Z,21.88
2022-08-05T09:26:01.167Z,22.09
2022-08-05T09:28:33.492Z,21.73
2022-08-05T09:31:23.461Z,21.65
2022-08-05T09:33:59.475Z,21.78
2022-08-05T09:36:54.154Z,21.93
2022-08-05T09:39:27.581Z,21.90
2022-08-05T09:42:07.821Z,21.84
2022-08-05T09:44:37.938Z,21.73
2022-08-05T09:47:10.360Z,21.67
2022-08-05T09:50:01.752Z,21.67
2022-08-05T09:52:34.037Z,21.60
2022-08-05T09:55:58.525Z,21.51
2022-08-05T09:57:59.922Z,21.34
2022-08-05T10:00:27.854Z,21.31
2022-08-05T10:02:58.333Z,21.30
2022-08-05T10:05:28.000Z,21.30
2022-08-05T10:08:36.010Z,21.27
2022-08-05T10:10:53.984Z,21.32
2022-08-05T10:13:27.550Z,21.43
2022-08-05T10:16:32.263Z,21.47
2022-08-05T10:19:01.631Z,21.48
2022-08-05T10:21:35.228Z,21.60
2022-08-05T10:24:10.903Z,21.69
2022-08-05T10:26:37.905Z,21.75
2022-08-05T10:29:23.733Z,21.77
2022-08-05T10:32:54.813Z,21.92
2022-08-05T10:34:55.291Z,21.99
2022-08-05T10:37:21.868Z,21.94
2022-08-05T10:40:03.354Z,21.88
2022-08-05T10:42:36.581Z,21.96
2022-08-05T10:45:21.025Z,22.13
2022-08-05T10:48:29.865Z,21.99
2022-08-05T10:51:29.057Z,22.04
2022-08-05T10:54:00.846Z,22.29
2022-08-05T10:56:30.671Z,22.24
2022-08-05T10:59:07.024Z,22.15
2022-08-05T11:01:55.495Z,22.17
2022-08-05T11:04:30.952Z,22.16
2022-08-05T11:06:58.303Z,22.15
2022-08-05T11:09:39.123Z,22.12
2022-08-05T11:12:24.753Z,22.22
2022-08-05T11:15:20.547Z,22.17
2022-08-05T11:18:07.294Z,22.30
2022-08-05T11:20:45.211Z,22.38
2022-08-05T11:23:33.004Z,22.40
2022-08-05T11:26:28.671Z,22.55
2022-08-05T11:29:13.435Z,22.70
2022-08-05T11:31:54.193Z,22.63
2022-08-05T11:34:51.349Z,22.55
2022-08-05T11:38:26.797Z,22.53
2022-08-05T11:41:54.674Z,22.58
2022-08-05T11:44:40.608Z,22.54
2022-08-05T11:47:10.474Z,22.51
2022-08-05T11:49:43.030Z,22.32
2022-08-05T11:52:11.872Z,22.30
2022-08-05T11:54:40.382Z,22.18
2022-08-05T11:57:24.497Z,22.09
2022-08-05T11:59:52.818Z,21.91
2022-08-05T12:02:31.409Z,21.80
2022-08-05T12:05:07.513Z,21.75
2022-08-05T12:08:08.483Z,21.79
2022-08-05T12:10:43.613Z,21.74
2022-08-05T12:13:27.970Z,21.79
2022-08-05T12:16:14.508Z,21.83
2022-08-05T12:18:52.338Z,21.89
2022-08-05T12:21:39.246Z,21.96
2022-08-05T12:24:07.347Z,22.02
2022-08-05T12:26:35.507Z,21.99
2022-08-05T12:29:09.433Z,21.95
2022-08-05T12:31:43.473Z,21.66
2022-08-05T12:34:21.178Z,21.56
2022-08-05T12:36:49.642Z,21.68
2022-08-05T12:39:17.170Z,21.66
2022-08-05T12:41:44.150Z,21.68
2022-08-05T12:44:14.530Z,21.73
2022-08-05T12:46:59.007Z,21.75
2022-08-05T12:49:25.455Z,21.74
2022-08-05T12:52:14.525Z,21.75
2022-08-05T12:54:51.271Z,21.83
2022-08-05T12:57:19.588Z,21.78
2022-08-05T13:01:57.259Z,21.83
2022-08-05T13:02:42.470Z,21.94
2022-08-05T13:05:14.657Z,21.86
2022-08-05T13:08:00.399Z,21.86
2022-08-05T13:10:28.774Z,22.02
2022-08-05T13:12:57.971Z,22.11
2022-08-05T13:15:41.632Z,22.12
2022-08-05T13:18:19.875Z,22.07
2022-08-05T13:20:49.284Z,21.90
2022-08-05T13:23:22.310Z,21.84
2022-08-05T13:25:52.032Z,21.86
2022-08-05T13:28:26.780Z,22.03
2022-08-05T13:30:53.692Z,22.29
2022-08-05T13:34:21.305Z,22.51
2022-08-05T13:36:09.299Z,22.32
2022-08-05T13:38:38.418Z,22.21
2022-08-05T13:41:10.052Z,22.11
2022-08-05T13:43:45.859Z,22.14
2022-08-05T13:46:44.069Z,22.09
2022-08-05T13:49:10.443Z,21.99
2022-08-05T13:51:40.900Z,22.25
2022-08-05T13:54:11.685Z,22.54
2022-08-05T13:56:39.645Z,22.23
2022-08-05T13:59:20.212Z,22.39
2022-08-05T14:01:57.804Z,22.32
2022-08-05T14:04:50.171Z,22.63
2022-08-05T14:07:55.781Z,22.76
2022-08-05T14:10:08.491Z,22.72
2022-08-05T14:12:37.623Z,22.89
2022-08-05T14:16:04.769Z,23.02
2022-08-05T14:17:55.105Z,23.01
2022-08-05T14:20:27.684Z,22.99
2022-08-05T14:22:54.415Z,22.96
2022-08-05T14:25:22.541Z,22.80
2022-08-05T14:27:54.497Z,22.54
2022-08-05T14:30:21.553Z,22.28
2022-08-05T14:32:48.814Z,22.09
2022-08-05T14:35:16.052Z,21.91
2022-08-05T14:37:49.033Z,21.80
2022-08-05T14:40:17.419Z,21.78
2022-08-05T14:42:44.131Z,21.72
2022-08-05T14:45:10.794Z,21.59
2022-08-05T14:48:04.270Z,21.63
2022-08-05T14:50:25.339Z,21.67
2022-08-05T14:52:56.764Z,21.74
2022-08-05T14:55:39.142Z,22.12
2022-08-05T14:58:11.575Z,21.93
2022-08-05T15:00:58.250Z,21.71
2022-08-05T15:03:29.589Z,21.91
2022-08-05T15:06:07.550Z,22.14
2022-08-05T15:09:01.279Z,22.27
2022-08-05T15:11:51.650Z,22.27
2022-08-05T15:14:34.320Z,22.06
2022-08-05T15:16:59.474Z,22.03
2022-08-05T15:19:26.066Z,21.86
2022-08-05T15:21:52.590Z,21.71
2022-08-05T15:24:18.951Z,21.73
2022-08-05T15:26:46.627Z,21.88
2022-08-05T15:29:15.307Z,22.14
2022-08-05T15:31:41.744Z,21.93
2022-08-05T15:34:31.593Z,21.64
2022-08-05T15:36:54.634Z,21.58
2022-08-05T15:40:59.158Z,21.60
2022-08-05T15:42:54.336Z,21.35
2022-08-05T15:44:56.643Z,21.28
2022-08-05T15:47:23.678Z,21.36
2022-08-05T15:49:59.178Z,21.50
2022-08-05T15:52:51.660Z,21.32
2022-08-05T15:55:16.084Z,21.25
2022-08-05T15:57:43.459Z,21.06
2022-08-05T16:00:12.481Z,20.97
2022-08-05T16:02:43.219Z,20.86
2022-08-05T16:05:11.167Z,20.94
2022-08-05T16:07:38.137Z,21.04
2022-08-05T16:10:12.816Z,21.14
2022-08-05T16:12:39.195Z,21.14
2022-08-05T16:15:06.127Z,21.05
2022-08-05T16:17:36.086Z,20.96
2022-08-05T16:20:04.502Z,20.85
2022-08-05T16:22:38.428Z,20.79
2022-08-05T16:25:09.871Z,20.67
2022-08-05T16:27:46.939Z,20.69
2022-08-05T16:30:26.636Z,20.59
2022-08-05T16:32:55.460Z,20.52
2022-08-05T16:35:27.806Z,20.57
2022-08-05T16:38:03.360Z,20.54
2022-08-05T16:40:42.128Z,20.43
2022-08-05T16:43:16.390Z,20.24
2022-08-05T16:46:06.099Z,20.17
2022-08-05T16:48:35.144Z,20.12
2022-08-05T16:51:02.172Z,20.13
2022-08-05T16:54:02.046Z,20.20
2022-08-05T16:56:17.243Z,20.19
2022-08-05T16:58:43.761Z,20.23
2022-08-05T17:01:11.209Z,20.21
2022-08-05T17:03:38.941Z,20.17
2022-08-05T17:06:05.782Z,20.12
2022-08-05T17:08:52.101Z,20.13
2022-08-05T17:11:23.774Z,20.03
2022-08-05T17:14:00.441Z,19.91
2022-08-05T17:16:36.383Z,19.93
2022-08-05T17:19:09.314Z,19.95
2022-08-05T17:21:37.685Z,19.99
2022-08-05T17:24:30.180Z,20.02
2022-08-05T17:26:56.784Z,19.91
2022-08-05T17:29:33.791Z,19.64
2022-08-05T17:32:08.635Z,19.54
2022-08-05T17:34:38.826Z,19.54
2022-08-05T17:37:35.954Z,19.56
2022-08-05T17:39:56.037Z,19.53
2022-08-05T17:42:29.937Z,19.52
2022-08-05T17:44:59.842Z,19.58
2022-08-05T17:47:27.266Z,19.52
2022-08-05T17:50:03.918Z,19.45
2022-08-05T17:52:53.232Z,19.43
2022-08-05T17:55:34.665Z,19.33
2022-08-05T17:58:14.471Z,19.35
2022-08-05T18:00:47.781Z,19.23
2022-08-05T18:06:11.090Z,19.23
2022-08-05T18:08:44.123Z,19.23
2022-08-05T18:11:24.027Z,19.31
2022-08-05T18:14:00.725Z,19.34
2022-08-05T18:16:30.331Z,19.34
2022-08-05T18:18:57.380Z,19.30
2022-08-05T18:21:26.301Z,19.31
2022-08-05T18:23:54.701Z,19.19
2022-08-05T18:26:27.837Z,18.97
2022-08-05T18:28:58.472Z,18.97
2022-08-05T18:31:35.357Z,19.07
2022-08-05T18:34:06.143Z,18.99
2022-08-05T18:36:38.468Z,18.99
2022-08-05T18:39:06.669Z,19.06
2022-08-05T18:41:57.092Z,19.04
2022-08-05T18:44:34.857Z,18.95
2022-08-05T18:47:03.694Z,18.85
2022-08-05T18:49:57.920Z,18.80
2022-08-05T18:52:36.008Z,18.76
2022-08-05T18:55:05.741Z,18.64
2022-08-05T18:57:43.057Z,18.62
2022-08-05T19:00:20.400Z,18.63
2022-08-05T19:02:47.547Z,18.66
2022-08-05T19:06:05.709Z,18.53
2022-08-05T19:08:02.675Z,18.58
2022-08-05T19:10:34.443Z,18.53
2022-08-05T19:13:07.121Z,18.56
2022-08-05T19:16:00.090Z,18.54
2022-08-05T19:18:28.768Z,18.49
2022-08-05T19:20:56.064Z,18.47
2022-08-05T19:24:06.758Z,18.49
2022-08-05T19:26:09.538Z,18.43
2022-08-05T19:28:43.138Z,18.26
2022-08-05T19:31:13.239Z,18.17
2022-08-05T19:33:48.642Z,18.18
2022-08-05T19:36:27.163Z,18.19
2022-08-05T19:39:00.730Z,18.14
2022-08-05T19:42:05.415Z,18.20
2022-08-05T19:44:19.116Z,18.16
2022-08-05T19:46:46.033Z,18.00
2022-08-05T19:49:17.127Z,17.87
2022-08-05T19:52:05.041Z,17.81
2022-08-05T19:54:32.781Z,17.85
2022-08-05T19:57:08.639Z,17.90
2022-08-05T19:59:56.103Z,17.97
2022-08-05T20:02:30.231Z,17.91
2022-08-05T20:04:58.375Z,17.88
2022-08-05T20:07:45.873Z,17.90
2022-08-05T20:10:14.820Z,17.98
2022-08-05T20:12:47.616Z,17.91
2022-08-05T20:15:23.318Z,17.95
2022-08-05T20:18:33.186Z,17.94
2022-08-05T20:20:57.760Z,17.94
2022-08-05T20:23:39.818Z,17.94
2022-08-05T20:26:17.276Z,17.90
2022-08-05T20:28:46.024Z,17.88
2022-08-05T20:31:13.414Z,17.69
2022-08-05T20:33:42.981Z,17.62
2022-08-05T20:36:10.095Z,17.65
2022-08-05T20:38:38.074Z,17.71
2022-08-05T20:41:08.452Z,17.64
2022-08-05T20:43:58.666Z,17.66
2022-08-05T20:46:24.907Z,17.65
2022-08-05T20:48:52.072Z,17.60
2022-08-05T20:51:18.659Z,17.59
2022-08-05T20:53:56.580Z,17.49
2022-08-05T20:56:29.912Z,17.45
2022-08-05T20:59:00.070Z,17.43
2022-08-05T21:01:40.591Z,17.35
2022-08-05T21:04:10.488Z,17.36
2022-08-05T21:06:38.404Z,17.25
2022-08-05T21:09:14.377Z,17.26
2022-08-05T21:12:06.525Z,17.16
2022-08-05T21:14:29.211Z,17.19
2022-08-05T21:17:01.905Z,17.22
2022-08-05T21:19:29.703Z,17.23
2022-08-05T21:22:14.922Z,17.21
2022-08-05T21:24:48.867Z,17.12
2022-08-05T21:27:18.045Z,17.09
2022-08-05T21:29:48.544Z,17.07
2022-08-05T21:32:20.119Z,17.00
2022-08-05T21:35:08.496Z,16.99
2022-08-05T21:37:41.437Z,16.96
2022-08-05T21:40:13.613Z,16.92
2022-08-05T21:42:45.225Z,16.93
2022-08-05T21:45:24.450Z,16.88
2022-08-05T21:47:57.085Z,16.87
2022-08-05T21:50:27.580Z,16.85
2022-08-05T21:53:04.352Z,16.82
2022-08-05T21:56:04.169Z,16.82
2022-08-05T21:58:19.577Z,16.80
2022-08-05T22:00:50.979Z,16.74
2022-08-05T22:03:18.302Z,16.70
2022-08-05T22:06:06.215Z,16.69
2022-08-05T22:08:35.118Z,16.69
2022-08-05T22:11:01.691Z,16.61
2022-08-05T22:14:33.199Z,16.61
2022-08-05T22:16:41.080Z,16.53
2022-08-05T22:19:02.203Z,16.47
2022-08-05T22:21:29.022Z,16.47
2022-08-05T22:24:40.705Z,16.32
2022-08-05T22:27:20.709Z,16.25
2022-08-05T22:29:47.935Z,16.26
2022-08-05T22:32:17.198Z,16.17
2022-08-05T22:34:44.204Z,16.16
2022-08-05T22:37:12.463Z,16.19
2022-08-05T22:39:39.197Z,16.16
2022-08-05T22:42:12.439Z,16.13
2022-08-05T22:44:40.804Z,16.10
2022-08-05T22:47:09.434Z,16.12
2022-08-05T22:50:17.810Z,16.07
2022-08-05T22:52:32.516Z,16.07
2022-08-05T22:55:01.729Z,16.05
2022-08-05T22:57:36.296Z,16.01
2022-08-05T23:00:07.981Z,16.00
2022-08-05T23:02:39.906Z,15.94
2022-08-05T23:05:15.097Z,15.90
2022-08-05T23:07:48.557Z,15.95
2022-08-05T23:10:19.625Z,15.96
2022-08-05T23:12:47.182Z,15.93
2022-08-05T23:15:17.974Z,15.96
2022-08-05T23:18:00.627Z,15.86
2022-08-05T23:20:29.900Z,15.82
2022-08-05T23:22:56.637Z,15.76
2022-08-05T23:25:52.763Z,15.76
2022-08-05T23:28:12.281Z,15.74
2022-08-05T23:30:40.551Z,15.73
2022-08-05T23:33:16.435Z,15.75
2022-08-05T23:35:48.876Z,15.74
2022-08-05T23:38:16.261Z,15.68
2022-08-05T23:40:49.809Z,15.65
2022-08-05T23:43:25.572Z,15.65
2022-08-05T23:46:03.399Z,15.63
2022-08-05T23:48:29.938Z,15.58
2022-08-05T23:50:56.368Z,15.37
2022-08-05T23:53:28.343Z,15.40
2022-08-05T23:56:11.647Z,15.38
2022-08-05T23:58:38.430Z,15.44
